Startpagina
METAR-TAF:

METAR-TAF

Vliegvelden :

Vliegbasis Kleine-Brogel

Peer, België

breedte: 51-10N, lengte: 005-28E, hoogte: 55 m

Actueel weer

Dit bericht is 20 minuten geleden gemaakt, om 17:25 UTC
Wind 5 kt uit het noordoosten
Temperatuur 23°C
Vochtigheid 44%
Druk 1015 hPa
Zicht 10 km of meer

METAR: EBBL 191725Z AUTO 05005KT 9999 NCD 23/10 Q1015 BLU

Tijdstip: 19:45 (17:45 UTC)

Verwachting

Dit bericht is 30 uur en het 4 minuten geleden gemaakt, om 11:41 UTC
Verwachting geldig van 18 om 13 UTC tot 18 om 22 UTC
Wind 12 kt uit het oostnoordoosten
Zicht 10 km of meer
Onbewolkt

TAF: EBBL 181141Z 1813/1822 07012KT 9999 SKC

Waarnemingen en weersverwachtingen van meer dan 4000 vliegvelden (METAR en TAF).

De beschikbare stations zijn de gele en rode punten op de kaart.

Ga met uw muis naar het station om de naam te zien.

Klik dan om waarnemingen en weersverwachtingen te zien.

kaart wijzigen: klik op de groene knoppen met een zwart kruis om in te zoomen, op de groene knop met een streepje om uit te zoomen of op de groene pijlen voor aangrenzende kaarten.


METAR-TAF: